Time;durP1;ratioP1;P1;durP2;ratioP2;P2;SDS_P1;SDS_P2;PMS_P1;PMS_P2;Temp;Humidity;BMP_temperature;BMP_pressure;BME280_temperature;BME280_humidity;BME280_pressure;Samples;Min_cycle;Max_cycle;Signal;HPM_P1;HPM_P2
2024/02/05 00:00:44;;;;;;;941.47;615.47;;;;;;;;;;7341974;19;20323;-43
2024/02/05 00:03:13;;;;;;;926.67;606.97;;;;;;;;;;7317008;19;20348;-41
2024/02/05 00:05:43;;;;;;;921.30;604.63;;;;;;;;;;7343130;19;20384;-42
2024/02/05 00:08:12;;;;;;;912.88;605.47;;;;;;;;;;7321587;19;20415;-42
2024/02/05 00:10:46;;;;;;;925.75;608.15;;;;;;;;;;7343566;19;20308;-43
2024/02/05 00:13:16;;;;;;;905.20;598.07;;;;;;;;;;7319763;19;20836;-43
2024/02/05 00:15:45;;;;;;;905.65;593.67;;;;;;;;;;7343318;19;20330;-41
2024/02/05 00:18:15;;;;;;;900.38;594.45;;;;;;;;;;7320860;19;20312;-43
2024/02/05 00:20:45;;;;;;;900.05;591.22;;;;;;;;;;7342349;19;20743;-43
2024/02/05 00:23:14;;;;;;;887.45;582.42;;;;;;;;;;7319434;19;20814;-42
2024/02/05 00:25:46;;;;;;;882.13;578.70;;;;;;;;;;7342425;19;20729;-43
2024/02/05 00:28:16;;;;;;;881.70;580.53;;;;;;;;;;7320595;19;20278;-42
2024/02/05 00:30:45;;;;;;;867.67;572.80;;;;;;;;;;7342913;19;20311;-42
2024/02/05 00:33:15;;;;;;;862.10;569.80;;;;;;;;;;7318737;19;20393;-44
2024/02/05 00:35:44;;;;;;;867.53;569.35;;;;;;;;;;7341211;19;20719;-42
2024/02/05 00:38:14;;;;;;;857.58;564.78;;;;;;;;;;7319733;19;21767;-43
2024/02/05 00:40:44;;;;;;;856.15;560.40;;;;;;;;;;7341274;19;20390;-41
2024/02/05 00:43:17;;;;;;;850.30;557.83;;;;;;;;;;7318588;19;20378;-39
2024/02/05 00:45:46;;;;;;;855.10;558.50;;;;;;;;;;7341820;19;20372;-41
2024/02/05 00:48:16;;;;;;;842.75;553.95;;;;;;;;;;7319242;19;20400;-42
2024/02/05 00:50:45;;;;;;;839.37;550.67;;;;;;;;;;7341508;19;20307;-40
2024/02/05 00:53:15;;;;;;;832.35;548.35;;;;;;;;;;7318331;19;21026;-43
2024/02/05 00:55:45;;;;;;;816.03;540.40;;;;;;;;;;7341590;19;20305;-41
2024/02/05 00:58:17;;;;;;;825.40;542.40;;;;;;;;;;7319273;19;20290;-40
2024/02/05 01:00:46;;;;;;;820.15;535.13;;;;;;;;;;7346676;19;20654;-43
2024/02/05 01:03:16;;;;;;;819.05;536.03;;;;;;;;;;7323094;19;21644;-42
2024/02/05 01:05:45;;;;;;;822.40;533.00;;;;;;;;;;7347181;19;20315;-43
2024/02/05 01:08:15;;;;;;;799.88;519.22;;;;;;;;;;7325582;19;20292;-43
2024/02/05 01:10:45;;;;;;;809.95;524.60;;;;;;;;;;7348168;19;20307;-39
2024/02/05 01:13:17;;;;;;;810.17;526.10;;;;;;;;;;7325109;19;20296;-42
2024/02/05 01:15:46;;;;;;;802.05;520.08;;;;;;;;;;7348239;19;20312;-42
2024/02/05 01:18:16;;;;;;;791.10;516.00;;;;;;;;;;7326562;19;20282;-41
2024/02/05 01:20:45;;;;;;;784.60;511.80;;;;;;;;;;7348206;19;20312;-43
2024/02/05 01:23:15;;;;;;;778.25;504.13;;;;;;;;;;7323988;19;20305;-42
2024/02/05 01:25:44;;;;;;;776.20;506.98;;;;;;;;;;7347787;19;20301;-43
2024/02/05 01:28:13;;;;;;;770.67;502.58;;;;;;;;;;7325792;19;20339;-43
2024/02/05 01:30:46;;;;;;;771.45;500.10;;;;;;;;;;7348154;19;20304;-40
2024/02/05 01:33:15;;;;;;;772.50;505.00;;;;;;;;;;7324372;19;20285;-43
2024/02/05 01:35:45;;;;;;;758.75;493.95;;;;;;;;;;7345868;19;20312;-42
2024/02/05 01:38:14;;;;;;;760.35;495.50;;;;;;;;;;7325604;19;20286;-42
2024/02/05 01:40:43;;;;;;;752.72;489.90;;;;;;;;;;7346242;19;20328;-41
2024/02/05 01:43:13;;;;;;;759.90;485.10;;;;;;;;;;7318011;19;20360;-42
2024/02/05 01:45:42;;;;;;;748.22;480.95;;;;;;;;;;7347312;19;20313;-39
2024/02/05 01:48:15;;;;;;;739.92;479.35;;;;;;;;;;7324378;19;20367;-42
2024/02/05 01:50:44;;;;;;;748.35;480.60;;;;;;;;;;7347100;19;20404;-40
2024/02/05 01:53:14;;;;;;;738.90;472.75;;;;;;;;;;7323297;19;21308;-41
2024/02/05 01:55:45;;;;;;;739.25;473.05;;;;;;;;;;7347005;19;20305;-42
2024/02/05 01:58:14;;;;;;;731.75;469.92;;;;;;;;;;7324491;19;20351;-43
2024/02/05 02:00:44;;;;;;;732.60;469.10;;;;;;;;;;7346224;19;20329;-43
2024/02/05 02:03:16;;;;;;;729.80;468.48;;;;;;;;;;7322914;19;20344;-41
2024/02/05 02:05:46;;;;;;;722.83;463.63;;;;;;;;;;7346710;19;20301;-41
2024/02/05 02:08:17;;;;;;;714.53;456.95;;;;;;;;;;7324784;19;20286;-43
2024/02/05 02:10:48;;;;;;;714.17;454.40;;;;;;;;;;7345823;19;20759;-43
2024/02/05 02:13:17;;;;;;;713.00;456.47;;;;;;;;;;7322542;19;20301;-41
2024/02/05 02:15:50;;;;;;;708.38;448.80;;;;;;;;;;7346568;19;20329;-41
2024/02/05 02:18:23;;;;;;;703.42;444.70;;;;;;;;;;7325443;19;20297;-42
2024/02/05 02:20:53;;;;;;;707.92;446.63;;;;;;;;;;7346501;19;20340;-42
2024/02/05 02:23:29;;;;;;;696.83;441.47;;;;;;;;;;7323408;19;20321;-41
2024/02/05 02:26:00;;;;;;;690.00;437.87;;;;;;;;;;7323067;19;20321;-41
2024/02/05 02:28:30;;;;;;;687.90;438.88;;;;;;;;;;7345779;19;20320;-42
2024/02/05 02:31:00;;;;;;;693.50;439.10;;;;;;;;;;7322959;19;20328;-42
2024/02/05 02:33:34;;;;;;;684.33;432.17;;;;;;;;;;7344134;19;20291;-42
2024/02/05 02:36:05;;;;;;;678.75;429.63;;;;;;;;;;7322290;19;20350;-40
2024/02/05 02:38:38;;;;;;;684.72;429.67;;;;;;;;;;7345517;19;20330;-39
2024/02/05 02:41:12;;;;;;;669.92;419.50;;;;;;;;;;7322980;19;20329;-41
2024/02/05 02:43:44;;;;;;;671.70;419.97;;;;;;;;;;7344897;19;20426;-42
2024/02/05 02:46:13;;;;;;;671.97;416.23;;;;;;;;;;7322766;19;20333;-39
2024/02/05 02:48:43;;;;;;;663.05;414.30;;;;;;;;;;7344458;19;20305;-43
2024/02/05 02:51:12;;;;;;;655.85;412.60;;;;;;;;;;7322878;19;20321;-41
2024/02/05 02:53:44;;;;;;;654.92;410.95;;;;;;;;;;7338709;19;20305;-42
2024/02/05 02:56:14;;;;;;;658.95;410.20;;;;;;;;;;7322785;19;20324;-39
2024/02/05 02:58:43;;;;;;;655.67;405.55;;;;;;;;;;7344906;19;20873;-43
2024/02/05 03:01:13;;;;;;;651.13;403.80;;;;;;;;;;7321711;19;21248;-42
2024/02/05 03:03:42;;;;;;;645.78;400.73;;;;;;;;;;7343470;19;20297;-43
2024/02/05 03:06:12;;;;;;;651.90;400.95;;;;;;;;;;7322471;19;20686;-41
2024/02/05 03:08:41;;;;;;;639.50;390.80;;;;;;;;;;7344572;19;20308;-43
2024/02/05 03:11:13;;;;;;;635.65;395.38;;;;;;;;;;7321864;19;20344;-43
2024/02/05 03:13:42;;;;;;;633.45;390.63;;;;;;;;;;7343638;19;20293;-43
2024/02/05 03:16:12;;;;;;;629.87;383.40;;;;;;;;;;7322267;19;20424;-43
2024/02/05 03:18:41;;;;;;;626.00;384.23;;;;;;;;;;7344290;19;20305;-42
2024/02/05 03:21:10;;;;;;;627.47;385.45;;;;;;;;;;7321571;19;20378;-41
2024/02/05 03:23:40;;;;;;;631.85;387.13;;;;;;;;;;7340512;19;20301;-42
2024/02/05 03:26:09;;;;;;;616.90;382.80;;;;;;;;;;7322021;19;20403;-41
2024/02/05 03:28:41;;;;;;;613.90;376.33;;;;;;;;;;7344322;19;20864;-41
2024/02/05 03:31:11;;;;;;;610.28;373.90;;;;;;;;;;7321619;19;20936;-43
2024/02/05 03:33:40;;;;;;;621.05;372.73;;;;;;;;;;7342657;19;20325;-40
2024/02/05 03:36:10;;;;;;;613.13;374.58;;;;;;;;;;7320006;19;20345;-43
2024/02/05 03:38:39;;;;;;;604.85;371.23;;;;;;;;;;7343482;19;20384;-43
2024/02/05 03:41:09;;;;;;;605.75;369.65;;;;;;;;;;7321779;19;20336;-43
2024/02/05 03:43:43;;;;;;;604.47;365.93;;;;;;;;;;7342336;19;20333;-39
2024/02/05 03:46:12;;;;;;;605.00;369.38;;;;;;;;;;7320931;19;20400;-43
2024/02/05 03:48:51;;;;;;;596.00;360.67;;;;;;;;;;7343781;19;20324;-42
2024/02/05 03:51:20;;;;;;;597.25;359.67;;;;;;;;;;7322029;19;20293;-41
2024/02/05 03:53:50;;;;;;;593.35;359.08;;;;;;;;;;7342501;19;20348;-41
2024/02/05 03:56:20;;;;;;;592.47;357.13;;;;;;;;;;7322318;19;20435;-42
2024/02/05 03:58:52;;;;;;;586.22;354.95;;;;;;;;;;7343779;19;21084;-42
2024/02/05 04:01:21;;;;;;;587.05;353.65;;;;;;;;;;7322301;19;20308;-41
2024/02/05 04:03:51;;;;;;;578.40;346.17;;;;;;;;;;7341427;19;20387;-41
2024/02/05 04:06:21;;;;;;;577.78;346.50;;;;;;;;;;7321631;19;20303;-40
2024/02/05 04:08:50;;;;;;;578.33;346.50;;;;;;;;;;7343257;19;20710;-43
2024/02/05 04:11:20;;;;;;;573.10;345.52;;;;;;;;;;7321653;19;20289;-42
2024/02/05 04:13:52;;;;;;;575.33;341.58;;;;;;;;;;7341560;19;20324;-39
2024/02/05 04:16:21;;;;;;;575.58;343.25;;;;;;;;;;7321773;19;20865;-43
2024/02/05 04:18:50;;;;;;;571.72;340.00;;;;;;;;;;7343325;19;20358;-41
2024/02/05 04:21:20;;;;;;;562.10;334.00;;;;;;;;;;7321379;19;20326;-41
2024/02/05 04:23:49;;;;;;;568.65;336.80;;;;;;;;;;7341319;19;20321;-41
2024/02/05 04:26:19;;;;;;;562.58;330.50;;;;;;;;;;7320190;19;20296;-38
2024/02/05 04:28:48;;;;;;;556.55;326.98;;;;;;;;;;7342441;19;20309;-42
2024/02/05 04:31:20;;;;;;;555.53;331.70;;;;;;;;;;7319964;19;20308;-41
2024/02/05 04:33:50;;;;;;;561.20;332.47;;;;;;;;;;7341294;19;20912;-39
2024/02/05 04:36:19;;;;;;;553.83;324.67;;;;;;;;;;7325735;19;20292;-42
2024/02/05 04:38:49;;;;;;;552.63;323.48;;;;;;;;;;7349421;19;20300;-40
2024/02/05 04:41:18;;;;;;;543.58;316.67;;;;;;;;;;7326725;19;20388;-42
2024/02/05 04:43:47;;;;;;;542.13;315.60;;;;;;;;;;7347319;19;20321;-42
2024/02/05 04:46:17;;;;;;;538.65;315.17;;;;;;;;;;7326770;19;20654;-43
2024/02/05 04:48:50;;;;;;;541.27;313.67;;;;;;;;;;7348959;19;20308;-43
2024/02/05 04:51:19;;;;;;;531.22;310.42;;;;;;;;;;7326937;19;20326;-40
2024/02/05 04:53:48;;;;;;;531.00;306.52;;;;;;;;;;7347708;19;20300;-40
2024/02/05 04:56:18;;;;;;;534.70;307.05;;;;;;;;;;7326316;19;20342;-41
2024/02/05 04:58:47;;;;;;;524.20;300.50;;;;;;;;;;7349483;19;20731;-41
2024/02/05 05:01:17;;;;;;;529.47;304.95;;;;;;;;;;7325729;19;20296;-42
2024/02/05 05:03:49;;;;;;;526.08;301.40;;;;;;;;;;7346184;19;20297;-43
2024/02/05 05:06:19;;;;;;;522.35;300.73;;;;;;;;;;7325071;19;20337;-41
2024/02/05 05:08:48;;;;;;;521.03;296.87;;;;;;;;;;7348207;19;20304;-42
2024/02/05 05:11:24;;;;;;;519.55;295.85;;;;;;;;;;7326096;19;20307;-42
2024/02/05 05:13:53;;;;;;;514.85;294.98;;;;;;;;;;7346533;19;20781;-43
2024/02/05 05:16:23;;;;;;;511.92;292.52;;;;;;;;;;7327507;19;20303;-44
2024/02/05 05:18:58;;;;;;;512.00;289.67;;;;;;;;;;7348272;19;20400;-41
2024/02/05 05:21:28;;;;;;;501.17;282.38;;;;;;;;;;7326981;19;20370;-40
2024/02/05 05:23:57;;;;;;;503.23;281.13;;;;;;;;;;7324041;19;20323;-42
2024/02/05 05:26:26;;;;;;;502.75;280.33;;;;;;;;;;7348338;19;20331;-43
2024/02/05 05:28:56;;;;;;;500.90;277.85;;;;;;;;;;7332895;19;20396;-41
2024/02/05 05:31:25;;;;;;;496.40;276.63;;;;;;;;;;7347940;19;20305;-41
2024/02/05 05:33:57;;;;;;;498.17;275.73;;;;;;;;;;7344942;19;20313;-36
2024/02/05 05:36:27;;;;;;;491.27;274.45;;;;;;;;;;7345959;19;20303;-40
2024/02/05 05:38:56;;;;;;;489.58;271.27;;;;;;;;;;7329775;19;20416;-38
2024/02/05 05:41:25;;;;;;;484.73;264.23;;;;;;;;;;7347113;19;20388;-43
2024/02/05 05:43:55;;;;;;;487.67;267.75;;;;;;;;;;7342280;19;20400;-39
2024/02/05 05:46:24;;;;;;;479.05;261.70;;;;;;;;;;7344654;19;20371;-43
2024/02/05 05:48:54;;;;;;;479.35;261.15;;;;;;;;;;7346548;19;20333;-41
2024/02/05 05:51:26;;;;;;;480.42;264.42;;;;;;;;;;7325854;19;20372;-42
2024/02/05 05:53:55;;;;;;;481.05;262.35;;;;;;;;;;7336184;19;20386;-44
2024/02/05 05:56:25;;;;;;;469.50;251.70;;;;;;;;;;7347234;19;20394;-42
2024/02/05 05:58:54;;;;;;;474.83;256.90;;;;;;;;;;7347148;19;20331;-43
2024/02/05 06:01:23;;;;;;;474.15;256.45;;;;;;;;;;7325687;19;20387;-42
2024/02/05 06:03:53;;;;;;;472.45;254.55;;;;;;;;;;7345065;19;20752;-43
2024/02/05 06:06:25;;;;;;;467.80;250.83;;;;;;;;;;7325810;19;20288;-41
2024/02/05 06:08:55;;;;;;;468.17;249.98;;;;;;;;;;7344159;19;20369;-40
2024/02/05 06:11:24;;;;;;;460.83;247.00;;;;;;;;;;7346015;19;20300;-42
2024/02/05 06:13:53;;;;;;;460.80;243.55;;;;;;;;;;7345423;19;20325;-42
2024/02/05 06:16:23;;;;;;;459.63;241.77;;;;;;;;;;7325200;19;20884;-43
2024/02/05 06:18:53;;;;;;;453.67;236.82;;;;;;;;;;7346164;19;20350;-40
2024/02/05 06:21:22;;;;;;;451.88;234.98;;;;;;;;;;7325542;19;20304;-43
2024/02/05 06:23:54;;;;;;;455.05;238.05;;;;;;;;;;7344518;19;20356;-41
2024/02/05 06:26:24;;;;;;;453.98;234.55;;;;;;;;;;7325901;19;20311;-40
2024/02/05 06:28:53;;;;;;;450.10;231.98;;;;;;;;;;7346668;19;20419;-41
2024/02/05 06:31:22;;;;;;;443.60;230.23;;;;;;;;;;7324694;19;20344;-43
2024/02/05 06:33:52;;;;;;;436.80;225.90;;;;;;;;;;7344573;19;20328;-41
2024/02/05 06:36:21;;;;;;;443.95;226.25;;;;;;;;;;7323887;19;20289;-40
2024/02/05 06:38:51;;;;;;;441.30;225.67;;;;;;;;;;7345836;19;20322;-41
2024/02/05 06:41:23;;;;;;;429.90;219.43;;;;;;;;;;7324741;19;20841;-40
2024/02/05 06:43:53;;;;;;;420.92;211.82;;;;;;;;;;7343945;19;20321;-43
2024/02/05 06:46:22;;;;;;;433.98;214.30;;;;;;;;;;7324582;19;20330;-43
2024/02/05 06:48:52;;;;;;;416.55;212.75;;;;;;;;;;7345460;19;20332;-42
2024/02/05 06:51:21;;;;;;;422.55;211.80;;;;;;;;;;7324273;19;20310;-42
2024/02/05 06:53:51;;;;;;;418.27;209.80;;;;;;;;;;7344086;19;20309;-40
2024/02/05 06:56:23;;;;;;;416.37;206.57;;;;;;;;;;7324004;19;20383;-43
2024/02/05 06:58:52;;;;;;;411.50;210.37;;;;;;;;;;7343618;19;20700;-43
2024/02/05 07:01:22;;;;;;;415.05;206.98;;;;;;;;;;7323665;19;20299;-41
2024/02/05 07:03:51;;;;;;;409.02;201.75;;;;;;;;;;7337222;19;20355;-43
2024/02/05 07:06:20;;;;;;;398.63;200.90;;;;;;;;;;7321685;19;20380;-42
2024/02/05 07:08:50;;;;;;;602.28;387.02;;;;;;;;;;7344948;19;20297;-41
2024/02/05 07:11:19;;;;;;;672.15;444.77;;;;;;;;;;7322370;19;20833;-40
2024/02/05 07:13:51;;;;;;;790.85;536.10;;;;;;;;;;7342688;19;20400;-42
2024/02/05 07:16:21;;;;;;;807.45;555.78;;;;;;;;;;7321283;19;20408;-41
2024/02/05 07:18:51;;;;;;;721.97;492.95;;;;;;;;;;7345105;19;20337;-40
2024/02/05 07:21:21;;;;;;;583.67;359.73;;;;;;;;;;7323872;19;20393;-38
2024/02/05 07:23:50;;;;;;;541.47;324.00;;;;;;;;;;7342882;19;20300;-35
2024/02/05 07:26:19;;;;;;;505.10;287.63;;;;;;;;;;7322329;19;20909;-35
2024/02/05 07:28:51;;;;;;;569.23;331.40;;;;;;;;;;7344176;19;20304;-38
2024/02/05 07:31:21;;;;;;;614.50;364.65;;;;;;;;;;7322897;19;20297;-39
2024/02/05 07:33:50;;;;;;;555.00;306.27;;;;;;;;;;7342626;19;20357;-37
2024/02/05 07:36:20;;;;;;;510.25;272.60;;;;;;;;;;7321477;19;20361;-39
2024/02/05 07:38:49;;;;;;;513.35;269.35;;;;;;;;;;7344383;19;20879;-35
2024/02/05 07:41:19;;;;;;;513.72;271.48;;;;;;;;;;7321229;19;20335;-38
2024/02/05 07:43:48;;;;;;;449.58;212.93;;;;;;;;;;7339799;19;20309;-37
2024/02/05 07:46:20;;;;;;;463.52;228.18;;;;;;;;;;7322165;19;20348;-36
2024/02/05 07:48:50;;;;;;;433.00;202.32;;;;;;;;;;7343455;19;20353;-36
2024/02/05 07:51:20;;;;;;;409.40;188.75;;;;;;;;;;7321456;19;20937;-37
2024/02/05 07:53:50;;;;;;;396.83;182.20;;;;;;;;;;7342671;19;20322;-36
2024/02/05 07:56:19;;;;;;;361.33;158.20;;;;;;;;;;7321196;19;20840;-39
2024/02/05 07:58:49;;;;;;;347.65;151.57;;;;;;;;;;7343439;19;20305;-37
2024/02/05 08:01:21;;;;;;;293.35;125.90;;;;;;;;;;7319452;19;20329;-37
2024/02/05 08:03:53;;;;;;;251.30;108.13;;;;;;;;;;7341906;19;20289;-38
2024/02/05 08:06:25;;;;;;;232.80;98.78;;;;;;;;;;7321115;19;20288;-35
2024/02/05 08:08:55;;;;;;;218.15;88.75;;;;;;;;;;7339171;19;20328;-37
2024/02/05 08:11:24;;;;;;;285.47;124.17;;;;;;;;;;7342339;19;20713;-40
2024/02/05 08:13:54;;;;;;;274.83;118.60;;;;;;;;;;7338659;19;20388;-41
2024/02/05 08:16:26;;;;;;;262.37;113.27;;;;;;;;;;7321633;19;20303;-42
2024/02/05 08:18:56;;;;;;;261.20;113.37;;;;;;;;;;7334083;19;20325;-40
2024/02/05 08:21:25;;;;;;;254.65;110.65;;;;;;;;;;7338418;19;20337;-38
2024/02/05 08:23:54;;;;;;;255.23;112.88;;;;;;;;;;7342217;19;20416;-42
2024/02/05 08:26:24;;;;;;;431.30;182.73;;;;;;;;;;7321100;19;20322;-41
2024/02/05 08:28:53;;;;;;;686.83;398.15;;;;;;;;;;7342525;19;20320;-42
2024/02/05 08:31:25;;;;;;;648.05;360.75;;;;;;;;;;7321142;19;20296;-42
2024/02/05 08:33:55;;;;;;;705.10;388.70;;;;;;;;;;7339554;19;20415;-41
2024/02/05 08:36:24;;;;;;;661.77;359.37;;;;;;;;;;7315043;19;20388;-42
2024/02/05 08:38:54;;;;;;;616.67;325.67;;;;;;;;;;7341478;19;20956;-42
2024/02/05 08:41:23;;;;;;;568.47;291.95;;;;;;;;;;7321142;19;20360;-39
2024/02/05 08:43:53;;;;;;;568.17;303.17;;;;;;;;;;7341053;19;20387;-42
2024/02/05 08:46:22;;;;;;;694.00;401.35;;;;;;;;;;7304659;19;20333;-42
2024/02/05 08:48:54;;;;;;;772.47;444.70;;;;;;;;;;7329002;19;20325;-39
2024/02/05 08:51:24;;;;;;;731.00;423.48;;;;;;;;;;7299661;19;20431;-38
2024/02/05 08:53:53;;;;;;;677.55;387.95;;;;;;;;;;7317026;19;21120;-41
2024/02/05 08:56:22;;;;;;;639.75;357.05;;;;;;;;;;7305913;19;20368;-41
2024/02/05 08:58:52;;;;;;;628.65;353.20;;;;;;;;;;7341484;19;20394;-41
2024/02/05 09:01:21;;;;;;;800.67;469.50;;;;;;;;;;7320856;19;20295;-38
2024/02/05 09:03:54;;;;;;;824.78;479.55;;;;;;;;;;7339713;19;20293;-42
2024/02/05 09:06:23;;;;;;;928.03;551.63;;;;;;;;;;7320027;19;20289;-42
2024/02/05 09:08:53;;;;;;;941.73;555.20;;;;;;;;;;7340705;19;20354;-42
2024/02/05 09:11:22;;;;;;;829.83;485.17;;;;;;;;;;7320290;19;20305;-42
2024/02/05 09:13:51;;;;;;;795.38;456.45;;;;;;;;;;7339677;19;20368;-40
2024/02/05 09:16:21;;;;;;;836.90;498.17;;;;;;;;;;7320403;19;20903;-41
2024/02/05 09:18:53;;;;;;;1009.75;594.55;;;;;;;;;;7341073;19;20309;-41
2024/02/05 09:21:23;;;;;;;1068.18;632.58;;;;;;;;;;7319416;19;20352;-40
2024/02/05 09:23:52;;;;;;;1009.63;596.60;;;;;;;;;;7346771;19;20303;-39
2024/02/05 09:26:21;;;;;;;948.70;562.95;;;;;;;;;;7325018;19;20300;-41
2024/02/05 09:28:51;;;;;;;922.78;549.25;;;;;;;;;;7347178;19;20301;-41
2024/02/05 09:31:20;;;;;;;972.57;577.03;;;;;;;;;;7326263;19;20304;-39
2024/02/05 09:33:49;;;;;;;1057.80;620.17;;;;;;;;;;7346224;19;20686;-41
2024/02/05 09:36:22;;;;;;;1095.32;657.92;;;;;;;;;;7324062;19;20392;-42
2024/02/05 09:38:52;;;;;;;1031.55;617.80;;;;;;;;;;7347556;19;20322;-42
2024/02/05 09:41:22;;;;;;;1097.65;645.28;;;;;;;;;;7326426;19;20297;-42
2024/02/05 09:43:52;;;;;;;1161.35;675.30;;;;;;;;;;7346155;19;20886;-39
2024/02/05 09:46:23;;;;;;;1125.45;661.33;;;;;;;;;;7325137;19;20293;-42
2024/02/05 09:48:54;;;;;;;1068.57;629.97;;;;;;;;;;7346721;19;20733;-42
2024/02/05 09:51:27;;;;;;;1018.88;603.05;;;;;;;;;;7323823;19;20293;-42
2024/02/05 09:53:56;;;;;;;1008.07;600.47;;;;;;;;;;7329008;19;20361;-40
2024/02/05 09:56:43;;;;;;;995.88;594.00;;;;;;;;;;7346394;19;20301;-39
2024/02/05 09:59:12;;;;;;;970.90;580.25;;;;;;;;;;7324128;19;20324;-41
2024/02/05 10:01:42;;;;;;;719.03;400.17;;;;;;;;;;7346784;19;20917;-38
2024/02/05 10:04:12;;;;;;;670.78;357.75;;;;;;;;;;7323825;19;20648;-38
2024/02/05 10:06:44;;;;;;;739.40;416.23;;;;;;;;;;7347881;19;20368;-36
2024/02/05 10:09:14;;;;;;;674.93;365.30;;;;;;;;;;7323442;19;20334;-37
2024/02/05 10:11:46;;;;;;;635.75;336.38;;;;;;;;;;7347663;19;20333;-36
2024/02/05 10:14:16;;;;;;;625.92;324.88;;;;;;;;;;7322053;19;20294;-39
2024/02/05 10:16:46;;;;;;;594.47;307.33;;;;;;;;;;7345875;19;20342;-39
2024/02/05 10:19:15;;;;;;;541.35;260.98;;;;;;;;;;7325102;19;21143;-37
2024/02/05 10:21:47;;;;;;;494.10;222.68;;;;;;;;;;7345125;19;20312;-39
2024/02/05 10:24:17;;;;;;;473.10;205.77;;;;;;;;;;7323962;19;20290;-38
2024/02/05 10:26:47;;;;;;;454.75;199.20;;;;;;;;;;7346409;19;20304;-38
2024/02/05 10:29:18;;;;;;;421.85;169.60;;;;;;;;;;7324644;19;20385;-36
2024/02/05 10:31:49;;;;;;;421.08;172.73;;;;;;;;;;7345666;19;20305;-35
2024/02/05 10:34:18;;;;;;;439.83;178.57;;;;;;;;;;7322827;19;20297;-35
2024/02/05 10:36:51;;;;;;;426.38;172.23;;;;;;;;;;7344760;19;20445;-36
2024/02/05 10:39:22;;;;;;;398.37;159.23;;;;;;;;;;7325397;19;20304;-40
2024/02/05 10:41:54;;;;;;;355.20;142.73;;;;;;;;;;7346551;19;20320;-37
2024/02/05 10:44:24;;;;;;;348.30;133.48;;;;;;;;;;7324258;19;20300;-38
2024/02/05 10:47:09;;;;;;;403.33;156.00;;;;;;;;;;7322746;19;21120;-37
2024/02/05 10:49:38;;;;;;;380.50;147.90;;;;;;;;;;7346192;19;20301;-38
2024/02/05 10:52:11;;;;;;;412.98;158.40;;;;;;;;;;7323089;19;20329;-39
2024/02/05 10:54:44;;;;;;;342.10;125.90;;;;;;;;;;7345388;19;20334;-40
2024/02/05 10:57:15;;;;;;;312.52;116.15;;;;;;;;;;7323371;19;21205;-37
2024/02/05 10:59:45;;;;;;;275.60;106.22;;;;;;;;;;7345478;19;20396;-38
2024/02/05 11:02:19;;;;;;;280.00;102.23;;;;;;;;;;7322925;19;20329;-39
2024/02/05 11:04:48;;;;;;;218.60;79.60;;;;;;;;;;7343806;19;20308;-36
2024/02/05 11:07:22;;;;;;;306.45;112.22;;;;;;;;;;7322174;19;20400;-37
2024/02/05 11:09:51;;;;;;;331.83;128.90;;;;;;;;;;7345098;19;20323;-41
2024/02/05 11:12:44;;;;;;;392.77;153.70;;;;;;;;;;7322675;19;20658;-39
2024/02/05 11:15:22;;;;;;;389.88;154.73;;;;;;;;;;7321601;19;20468;-39
2024/02/05 11:17:53;;;;;;;574.80;287.75;;;;;;;;;;7343390;19;20339;-42
2024/02/05 11:20:25;;;;;;;608.10;315.67;;;;;;;;;;7323661;19;20318;-41
2024/02/05 11:22:59;;;;;;;591.97;309.88;;;;;;;;;;7344799;19;20349;-40
2024/02/05 11:25:29;;;;;;;523.28;257.27;;;;;;;;;;7322236;19;20303;-39
2024/02/05 11:27:58;;;;;;;519.80;252.48;;;;;;;;;;7321166;19;20325;-41
2024/02/05 11:30:30;;;;;;;567.78;291.20;;;;;;;;;;7343683;19;20735;-38
2024/02/05 11:33:00;;;;;;;608.45;313.42;;;;;;;;;;7319871;19;20344;-40
2024/02/05 11:35:32;;;;;;;647.70;361.65;;;;;;;;;;7338098;19;20368;-40
2024/02/05 11:38:09;;;;;;;601.58;317.27;;;;;;;;;;7320116;19;20995;-40
2024/02/05 11:40:39;;;;;;;598.05;315.35;;;;;;;;;;7343568;19;20308;-42
2024/02/05 11:43:10;;;;;;;575.97;300.20;;;;;;;;;;7320501;19;20340;-41
2024/02/05 11:45:39;;;;;;;577.70;298.88;;;;;;;;;;7340744;19;20844;-37
2024/02/05 11:48:10;;;;;;;569.07;293.53;;;;;;;;;;7319959;19;20325;-39
2024/02/05 11:50:40;;;;;;;558.38;289.13;;;;;;;;;;7343550;19;20312;-41
2024/02/05 11:53:12;;;;;;;556.15;286.75;;;;;;;;;;7320048;19;20893;-39
2024/02/05 11:55:42;;;;;;;549.13;284.02;;;;;;;;;;7343334;19;20867;-39
2024/02/05 11:58:11;;;;;;;543.95;279.35;;;;;;;;;;7320489;19;20325;-39
2024/02/05 12:00:41;;;;;;;542.60;278.08;;;;;;;;;;7343123;19;20303;-42
2024/02/05 12:03:12;;;;;;;537.75;271.83;;;;;;;;;;7319348;19;20368;-41
2024/02/05 12:05:42;;;;;;;536.63;268.40;;;;;;;;;;7341982;19;20304;-40
2024/02/05 12:08:14;;;;;;;536.40;272.95;;;;;;;;;;7320423;19;20337;-42
2024/02/05 12:10:44;;;;;;;526.63;266.42;;;;;;;;;;7343296;19;20388;-42
2024/02/05 12:13:16;;;;;;;523.53;266.63;;;;;;;;;;7319239;19;20352;-38
2024/02/05 12:15:47;;;;;;;515.92;259.42;;;;;;;;;;7342445;19;20325;-39
2024/02/05 12:18:16;;;;;;;524.60;266.25;;;;;;;;;;7320217;19;20315;-40
2024/02/05 12:20:47;;;;;;;521.10;259.20;;;;;;;;;;7342504;19;20395;-41
2024/02/05 12:23:19;;;;;;;518.28;257.52;;;;;;;;;;7319218;19;20823;-42
2024/02/05 12:25:49;;;;;;;512.20;254.70;;;;;;;;;;7341856;19;20381;-40
2024/02/05 12:28:19;;;;;;;507.15;250.65;;;;;;;;;;7319086;19;20330;-39
2024/02/05 12:30:57;;;;;;;502.60;247.63;;;;;;;;;;7342561;19;20393;-41
2024/02/05 12:33:28;;;;;;;499.92;243.35;;;;;;;;;;7319900;19;20411;-41
2024/02/05 12:35:59;;;;;;;496.77;243.63;;;;;;;;;;7320240;19;20328;-42
2024/02/05 12:38:31;;;;;;;490.08;240.95;;;;;;;;;;7342544;19;20881;-42
2024/02/05 12:41:01;;;;;;;491.60;241.40;;;;;;;;;;7318836;19;20353;-42
2024/02/05 12:43:31;;;;;;;495.95;240.90;;;;;;;;;;7340653;19;20642;-41
2024/02/05 12:46:01;;;;;;;488.13;235.20;;;;;;;;;;7318690;19;20335;-38
2024/02/05 12:48:30;;;;;;;478.98;230.45;;;;;;;;;;7340424;19;20297;-41
2024/02/05 12:51:00;;;;;;;472.15;231.60;;;;;;;;;;7319368;19;20343;-40
2024/02/05 12:53:32;;;;;;;485.05;231.38;;;;;;;;;;7340709;19;20396;-40
2024/02/05 12:56:04;;;;;;;469.47;224.23;;;;;;;;;;7321838;19;20420;-41
2024/02/05 12:58:33;;;;;;;477.20;230.25;;;;;;;;;;7349579;19;20301;-39
2024/02/05 13:01:03;;;;;;;465.92;219.40;;;;;;;;;;7325595;19;20328;-41
2024/02/05 13:03:33;;;;;;;471.60;222.32;;;;;;;;;;7346571;19;20305;-41
2024/02/05 13:06:02;;;;;;;466.80;219.77;;;;;;;;;;7324799;19;20345;-42
2024/02/05 13:08:35;;;;;;;465.70;225.77;;;;;;;;;;7346997;19;20666;-41
2024/02/05 13:11:05;;;;;;;459.92;214.68;;;;;;;;;;7324999;19;20324;-40
2024/02/05 13:13:34;;;;;;;464.90;217.05;;;;;;;;;;7347300;19;20853;-39
2024/02/05 13:16:04;;;;;;;455.52;212.43;;;;;;;;;;7325319;19;20412;-39
2024/02/05 13:18:34;;;;;;;458.10;214.77;;;;;;;;;;7347600;19;20331;-38
2024/02/05 13:21:03;;;;;;;451.27;210.20;;;;;;;;;;7325075;19;20884;-37
2024/02/05 13:23:35;;;;;;;451.77;207.07;;;;;;;;;;7346606;19;20914;-40
2024/02/05 13:26:05;;;;;;;450.35;207.32;;;;;;;;;;7325151;19;20328;-40
2024/02/05 13:28:39;;;;;;;441.77;201.35;;;;;;;;;;7346844;19;20906;-41
2024/02/05 13:31:08;;;;;;;448.10;204.70;;;;;;;;;;7320579;19;20328;-40
2024/02/05 13:33:38;;;;;;;436.13;202.93;;;;;;;;;;7346483;19;20295;-39
2024/02/05 13:36:07;;;;;;;438.33;201.52;;;;;;;;;;7324215;19;20328;-40
2024/02/05 13:38:40;;;;;;;446.67;202.27;;;;;;;;;;7346966;19;20305;-39
2024/02/05 13:41:09;;;;;;;435.30;196.17;;;;;;;;;;7324975;19;20332;-40
2024/02/05 13:43:39;;;;;;;429.13;198.38;;;;;;;;;;7345786;19;20658;-39
2024/02/05 13:46:08;;;;;;;431.73;193.93;;;;;;;;;;7324686;19;20328;-41
2024/02/05 13:48:39;;;;;;;435.38;192.70;;;;;;;;;;7346499;19;20305;-40
2024/02/05 13:51:08;;;;;;;419.05;189.50;;;;;;;;;;7324357;19;20364;-40
2024/02/05 13:53:40;;;;;;;417.30;186.25;;;;;;;;;;7345778;19;20320;-41
2024/02/05 13:56:09;;;;;;;428.42;187.85;;;;;;;;;;7324661;19;20337;-40
2024/02/05 13:58:39;;;;;;;411.20;183.43;;;;;;;;;;7346551;19;20299;-35
2024/02/05 14:01:08;;;;;;;412.90;186.07;;;;;;;;;;7324361;19;20325;-36
2024/02/05 14:03:38;;;;;;;405.08;182.63;;;;;;;;;;7345145;19;20293;-41
2024/02/05 14:06:07;;;;;;;402.95;182.00;;;;;;;;;;7323542;19;20411;-39
2024/02/05 14:08:37;;;;;;;409.40;180.82;;;;;;;;;;7343674;19;20320;-42